sensor_id;sensor_type;location;lat;lon;timestamp;P1;durP1;ratioP1;P2;durP2;ratioP2
71353;SDS011;59393;51.652;4.864;2022-09-28T00:01:38;8.20;;;3.38;;
71353;SDS011;59393;51.652;4.864;2022-09-28T00:04:04;10.15;;;2.95;;
71353;SDS011;59393;51.652;4.864;2022-09-28T00:06:31;8.30;;;3.35;;
71353;SDS011;59393;51.652;4.864;2022-09-28T00:08:57;6.37;;;2.30;;
71353;SDS011;59393;51.652;4.864;2022-09-28T00:11:23;14.18;;;3.75;;
71353;SDS011;59393;51.652;4.864;2022-09-28T00:13:52;10.52;;;3.40;;
71353;SDS011;59393;51.652;4.864;2022-09-28T00:16:21;11.65;;;3.35;;
71353;SDS011;59393;51.652;4.864;2022-09-28T00:18:47;9.95;;;3.42;;
71353;SDS011;59393;51.652;4.864;2022-09-28T00:21:16;9.00;;;3.60;;
71353;SDS011;59393;51.652;4.864;2022-09-28T00:23:42;8.50;;;4.07;;
71353;SDS011;59393;51.652;4.864;2022-09-28T00:26:27;7.65;;;3.85;;
71353;SDS011;59393;51.652;4.864;2022-09-28T00:28:54;10.18;;;3.70;;
71353;SDS011;59393;51.652;4.864;2022-09-28T00:31:22;9.10;;;3.15;;
71353;SDS011;59393;51.652;4.864;2022-09-28T00:33:52;9.60;;;4.10;;
71353;SDS011;59393;51.652;4.864;2022-09-28T00:36:24;10.95;;;4.40;;
71353;SDS011;59393;51.652;4.864;2022-09-28T00:38:54;9.70;;;4.05;;
71353;SDS011;59393;51.652;4.864;2022-09-28T00:41:24;7.40;;;3.75;;
71353;SDS011;59393;51.652;4.864;2022-09-28T00:43:50;15.05;;;5.05;;
71353;SDS011;59393;51.652;4.864;2022-09-28T00:46:17;8.60;;;4.30;;
71353;SDS011;59393;51.652;4.864;2022-09-28T00:48:48;9.70;;;3.83;;
71353;SDS011;59393;51.652;4.864;2022-09-28T00:51:16;7.63;;;4.20;;
71353;SDS011;59393;51.652;4.864;2022-09-28T00:53:43;8.93;;;3.58;;
71353;SDS011;59393;51.652;4.864;2022-09-28T00:56:12;13.77;;;4.30;;
71353;SDS011;59393;51.652;4.864;2022-09-28T00:58:44;9.57;;;4.50;;
71353;SDS011;59393;51.652;4.864;2022-09-28T01:01:11;15.75;;;4.18;;
71353;SDS011;59393;51.652;4.864;2022-09-28T01:03:37;10.32;;;4.22;;
71353;SDS011;59393;51.652;4.864;2022-09-28T01:06:10;11.07;;;4.20;;
71353;SDS011;59393;51.652;4.864;2022-09-28T01:08:39;7.60;;;3.83;;
71353;SDS011;59393;51.652;4.864;2022-09-28T01:11:07;8.67;;;3.80;;
71353;SDS011;59393;51.652;4.864;2022-09-28T01:13:33;9.40;;;3.80;;
71353;SDS011;59393;51.652;4.864;2022-09-28T01:21:21;11.90;;;4.60;;
71353;SDS011;59393;51.652;4.864;2022-09-28T01:23:59;8.87;;;3.63;;
71353;SDS011;59393;51.652;4.864;2022-09-28T01:29:04;10.88;;;4.30;;
71353;SDS011;59393;51.652;4.864;2022-09-28T01:31:31;14.13;;;5.60;;
71353;SDS011;59393;51.652;4.864;2022-09-28T01:34:34;12.98;;;5.05;;
71353;SDS011;59393;51.652;4.864;2022-09-28T01:36:52;13.33;;;4.20;;
71353;SDS011;59393;51.652;4.864;2022-09-28T01:39:23;9.23;;;3.80;;
71353;SDS011;59393;51.652;4.864;2022-09-28T01:41:51;11.13;;;4.00;;
71353;SDS011;59393;51.652;4.864;2022-09-28T01:44:19;12.18;;;3.38;;
71353;SDS011;59393;51.652;4.864;2022-09-28T01:46:46;10.25;;;3.00;;
71353;SDS011;59393;51.652;4.864;2022-09-28T01:49:16;8.03;;;2.73;;
71353;SDS011;59393;51.652;4.864;2022-09-28T01:54:13;8.07;;;2.08;;
71353;SDS011;59393;51.652;4.864;2022-09-28T01:56:41;6.05;;;2.13;;
71353;SDS011;59393;51.652;4.864;2022-09-28T01:59:16;7.10;;;1.50;;
71353;SDS011;59393;51.652;4.864;2022-09-28T02:01:59;7.53;;;1.77;;
71353;SDS011;59393;51.652;4.864;2022-09-28T02:04:28;9.48;;;1.75;;
71353;SDS011;59393;51.652;4.864;2022-09-28T02:07:20;5.25;;;1.27;;
71353;SDS011;59393;51.652;4.864;2022-09-28T02:09:50;4.50;;;1.00;;
71353;SDS011;59393;51.652;4.864;2022-09-28T02:12:29;3.80;;;0.80;;
71353;SDS011;59393;51.652;4.864;2022-09-28T02:14:58;1.67;;;0.57;;
71353;SDS011;59393;51.652;4.864;2022-09-28T02:17:29;7.30;;;0.85;;
71353;SDS011;59393;51.652;4.864;2022-09-28T02:19:55;4.32;;;0.60;;
71353;SDS011;59393;51.652;4.864;2022-09-28T02:22:30;3.88;;;0.77;;
71353;SDS011;59393;51.652;4.864;2022-09-28T02:25:09;1.95;;;0.50;;
71353;SDS011;59393;51.652;4.864;2022-09-28T02:30:08;6.70;;;0.70;;
71353;SDS011;59393;51.652;4.864;2022-09-28T02:32:36;8.43;;;0.70;;
71353;SDS011;59393;51.652;4.864;2022-09-28T02:35:09;1.20;;;0.40;;
71353;SDS011;59393;51.652;4.864;2022-09-28T02:37:39;4.95;;;0.50;;
71353;SDS011;59393;51.652;4.864;2022-09-28T02:40:17;3.70;;;0.60;;
71353;SDS011;59393;51.652;4.864;2022-09-28T02:53:28;2.37;;;0.33;;
71353;SDS011;59393;51.652;4.864;2022-09-28T03:01:16;4.90;;;0.40;;
71353;SDS011;59393;51.652;4.864;2022-09-28T03:06:13;1.03;;;0.30;;
71353;SDS011;59393;51.652;4.864;2022-09-28T03:08:51;2.28;;;0.57;;
71353;SDS011;59393;51.652;4.864;2022-09-28T03:11:21;4.18;;;0.50;;
71353;SDS011;59393;51.652;4.864;2022-09-28T03:13:50;1.92;;;0.50;;
71353;SDS011;59393;51.652;4.864;2022-09-28T03:16:17;3.70;;;0.80;;
71353;SDS011;59393;51.652;4.864;2022-09-28T03:18:44;2.60;;;0.63;;
71353;SDS011;59393;51.652;4.864;2022-09-28T03:21:10;4.97;;;0.50;;
71353;SDS011;59393;51.652;4.864;2022-09-28T03:23:37;2.65;;;0.70;;
71353;SDS011;59393;51.652;4.864;2022-09-28T03:26:03;1.10;;;0.40;;
71353;SDS011;59393;51.652;4.864;2022-09-28T03:28:29;1.33;;;0.50;;
71353;SDS011;59393;51.652;4.864;2022-09-28T03:30:55;5.40;;;0.70;;
71353;SDS011;59393;51.652;4.864;2022-09-28T03:33:21;4.97;;;0.80;;
71353;SDS011;59393;51.652;4.864;2022-09-28T03:35:50;1.88;;;0.70;;
71353;SDS011;59393;51.652;4.864;2022-09-28T03:38:17;4.57;;;0.70;;
71353;SDS011;59393;51.652;4.864;2022-09-28T03:40:43;4.78;;;0.57;;
71353;SDS011;59393;51.652;4.864;2022-09-28T03:43:09;1.63;;;0.60;;
71353;SDS011;59393;51.652;4.864;2022-09-28T03:45:35;2.15;;;0.50;;
71353;SDS011;59393;51.652;4.864;2022-09-28T03:48:01;2.75;;;0.45;;
71353;SDS011;59393;51.652;4.864;2022-09-28T03:50:27;3.75;;;0.60;;
71353;SDS011;59393;51.652;4.864;2022-09-28T03:52:55;3.03;;;0.50;;
71353;SDS011;59393;51.652;4.864;2022-09-28T03:55:27;1.45;;;0.50;;
71353;SDS011;59393;51.652;4.864;2022-09-28T03:57:53;3.03;;;0.50;;
71353;SDS011;59393;51.652;4.864;2022-09-28T04:00:21;2.15;;;0.50;;
71353;SDS011;59393;51.652;4.864;2022-09-28T04:02:47;6.18;;;0.50;;
71353;SDS011;59393;51.652;4.864;2022-09-28T04:05:13;1.00;;;0.30;;
71353;SDS011;59393;51.652;4.864;2022-09-28T04:07:39;1.70;;;0.40;;
71353;SDS011;59393;51.652;4.864;2022-09-28T04:10:06;1.80;;;0.50;;
71353;SDS011;59393;51.652;4.864;2022-09-28T04:12:33;3.80;;;0.50;;
71353;SDS011;59393;51.652;4.864;2022-09-28T04:14:59;1.37;;;0.57;;
71353;SDS011;59393;51.652;4.864;2022-09-28T04:17:25;4.38;;;0.60;;
71353;SDS011;59393;51.652;4.864;2022-09-28T04:19:51;1.15;;;0.55;;
71353;SDS011;59393;51.652;4.864;2022-09-28T04:22:17;2.20;;;0.50;;
71353;SDS011;59393;51.652;4.864;2022-09-28T04:24:44;0.80;;;0.40;;
71353;SDS011;59393;51.652;4.864;2022-09-28T04:27:10;2.90;;;0.50;;
71353;SDS011;59393;51.652;4.864;2022-09-28T04:29:55;2.20;;;0.50;;
71353;SDS011;59393;51.652;4.864;2022-09-28T04:32:21;1.63;;;0.50;;
71353;SDS011;59393;51.652;4.864;2022-09-28T04:34:47;3.17;;;0.80;;
71353;SDS011;59393;51.652;4.864;2022-09-28T04:37:17;2.30;;;0.40;;
71353;SDS011;59393;51.652;4.864;2022-09-28T04:39:46;5.47;;;0.80;;
71353;SDS011;59393;51.652;4.864;2022-09-28T04:42:13;6.07;;;0.75;;
71353;SDS011;59393;51.652;4.864;2022-09-28T04:44:39;1.38;;;0.50;;
71353;SDS011;59393;51.652;4.864;2022-09-28T04:47:05;6.78;;;2.35;;
71353;SDS011;59393;51.652;4.864;2022-09-28T04:49:32;2.88;;;0.50;;
71353;SDS011;59393;51.652;4.864;2022-09-28T04:51:59;1.67;;;0.90;;
71353;SDS011;59393;51.652;4.864;2022-09-28T04:54:25;1.55;;;0.52;;
71353;SDS011;59393;51.652;4.864;2022-09-28T04:56:51;3.25;;;0.60;;
71353;SDS011;59393;51.652;4.864;2022-09-28T04:59:18;3.60;;;0.55;;
71353;SDS011;59393;51.652;4.864;2022-09-28T05:01:44;2.05;;;0.82;;
71353;SDS011;59393;51.652;4.864;2022-09-28T05:04:11;2.60;;;0.60;;
71353;SDS011;59393;51.652;4.864;2022-09-28T05:06:38;1.63;;;0.50;;
71353;SDS011;59393;51.652;4.864;2022-09-28T05:09:05;8.95;;;1.40;;
71353;SDS011;59393;51.652;4.864;2022-09-28T05:11:34;13.93;;;3.08;;
71353;SDS011;59393;51.652;4.864;2022-09-28T05:14:00;6.05;;;0.80;;
71353;SDS011;59393;51.652;4.864;2022-09-28T05:16:26;3.67;;;1.20;;
71353;SDS011;59393;51.652;4.864;2022-09-28T05:18:55;5.38;;;0.93;;
71353;SDS011;59393;51.652;4.864;2022-09-28T05:21:22;1.65;;;0.70;;
71353;SDS011;59393;51.652;4.864;2022-09-28T05:23:50;5.00;;;0.95;;
71353;SDS011;59393;51.652;4.864;2022-09-28T05:26:20;2.90;;;0.80;;
71353;SDS011;59393;51.652;4.864;2022-09-28T05:28:46;2.57;;;0.60;;
71353;SDS011;59393;51.652;4.864;2022-09-28T05:31:12;4.63;;;0.90;;
71353;SDS011;59393;51.652;4.864;2022-09-28T05:33:38;7.53;;;1.17;;
71353;SDS011;59393;51.652;4.864;2022-09-28T05:36:07;6.65;;;1.10;;
71353;SDS011;59393;51.652;4.864;2022-09-28T05:38:37;5.67;;;1.30;;
71353;SDS011;59393;51.652;4.864;2022-09-28T05:41:03;3.38;;;0.73;;
71353;SDS011;59393;51.652;4.864;2022-09-28T05:43:29;4.70;;;1.30;;
71353;SDS011;59393;51.652;4.864;2022-09-28T05:45:57;3.05;;;0.90;;
71353;SDS011;59393;51.652;4.864;2022-09-28T05:48:25;5.43;;;0.90;;
71353;SDS011;59393;51.652;4.864;2022-09-28T05:50:52;3.28;;;0.85;;
71353;SDS011;59393;51.652;4.864;2022-09-28T05:53:18;4.75;;;0.80;;
71353;SDS011;59393;51.652;4.864;2022-09-28T05:55:45;2.80;;;0.85;;
71353;SDS011;59393;51.652;4.864;2022-09-28T05:58:11;8.90;;;1.42;;
71353;SDS011;59393;51.652;4.864;2022-09-28T06:00:37;3.30;;;0.90;;
71353;SDS011;59393;51.652;4.864;2022-09-28T06:03:05;4.15;;;0.85;;
71353;SDS011;59393;51.652;4.864;2022-09-28T06:05:32;3.20;;;0.80;;
71353;SDS011;59393;51.652;4.864;2022-09-28T06:07:59;4.20;;;0.95;;
71353;SDS011;59393;51.652;4.864;2022-09-28T06:10:26;4.75;;;1.10;;
71353;SDS011;59393;51.652;4.864;2022-09-28T06:12:53;3.10;;;0.85;;
71353;SDS011;59393;51.652;4.864;2022-09-28T06:15:20;7.13;;;1.20;;
71353;SDS011;59393;51.652;4.864;2022-09-28T06:18:05;5.90;;;1.00;;
71353;SDS011;59393;51.652;4.864;2022-09-28T06:20:33;3.72;;;0.80;;
71353;SDS011;59393;51.652;4.864;2022-09-28T06:22:59;4.28;;;0.80;;
71353;SDS011;59393;51.652;4.864;2022-09-28T06:25:25;3.28;;;0.80;;
71353;SDS011;59393;51.652;4.864;2022-09-28T06:27:52;3.67;;;0.65;;
71353;SDS011;59393;51.652;4.864;2022-09-28T06:30:19;3.72;;;1.00;;
71353;SDS011;59393;51.652;4.864;2022-09-28T06:32:45;5.45;;;0.90;;
71353;SDS011;59393;51.652;4.864;2022-09-28T06:35:11;2.70;;;1.05;;
71353;SDS011;59393;51.652;4.864;2022-09-28T06:37:39;2.65;;;0.63;;
71353;SDS011;59393;51.652;4.864;2022-09-28T06:40:06;5.33;;;0.90;;
71353;SDS011;59393;51.652;4.864;2022-09-28T06:42:32;3.55;;;0.70;;
71353;SDS011;59393;51.652;4.864;2022-09-28T06:44:58;4.40;;;0.90;;
71353;SDS011;59393;51.652;4.864;2022-09-28T06:47:24;3.50;;;1.10;;
71353;SDS011;59393;51.652;4.864;2022-09-28T06:49:50;4.18;;;0.80;;
71353;SDS011;59393;51.652;4.864;2022-09-28T06:52:19;4.30;;;1.00;;
71353;SDS011;59393;51.652;4.864;2022-09-28T06:54:45;3.97;;;1.20;;
71353;SDS011;59393;51.652;4.864;2022-09-28T06:57:11;5.78;;;0.90;;
71353;SDS011;59393;51.652;4.864;2022-09-28T06:59:37;3.63;;;1.00;;
71353;SDS011;59393;51.652;4.864;2022-09-28T07:02:03;6.60;;;1.20;;
71353;SDS011;59393;51.652;4.864;2022-09-28T07:04:29;2.33;;;1.00;;
71353;SDS011;59393;51.652;4.864;2022-09-28T07:06:56;4.43;;;1.02;;
71353;SDS011;59393;51.652;4.864;2022-09-28T07:09:23;7.38;;;1.30;;
71353;SDS011;59393;51.652;4.864;2022-09-28T07:11:49;3.47;;;1.30;;
71353;SDS011;59393;51.652;4.864;2022-09-28T07:14:16;7.55;;;1.40;;
71353;SDS011;59393;51.652;4.864;2022-09-28T07:16:44;4.63;;;1.37;;
71353;SDS011;59393;51.652;4.864;2022-09-28T07:19:10;4.97;;;1.25;;
71353;SDS011;59393;51.652;4.864;2022-09-28T07:21:36;5.28;;;1.30;;
71353;SDS011;59393;51.652;4.864;2022-09-28T07:24:02;3.95;;;1.50;;
71353;SDS011;59393;51.652;4.864;2022-09-28T07:26:29;6.10;;;1.35;;
71353;SDS011;59393;51.652;4.864;2022-09-28T07:28:57;6.30;;;1.37;;
71353;SDS011;59393;51.652;4.864;2022-09-28T07:31:23;5.65;;;1.50;;
71353;SDS011;59393;51.652;4.864;2022-09-28T07:33:49;8.88;;;1.75;;
71353;SDS011;59393;51.652;4.864;2022-09-28T07:36:15;4.45;;;1.80;;
71353;SDS011;59393;51.652;4.864;2022-09-28T07:38:44;6.40;;;1.77;;
71353;SDS011;59393;51.652;4.864;2022-09-28T07:41:10;5.77;;;1.70;;
71353;SDS011;59393;51.652;4.864;2022-09-28T07:43:38;11.02;;;2.30;;
71353;SDS011;59393;51.652;4.864;2022-09-28T07:46:04;7.65;;;2.00;;
71353;SDS011;59393;51.652;4.864;2022-09-28T07:48:37;11.45;;;1.92;;
71353;SDS011;59393;51.652;4.864;2022-09-28T07:51:03;5.40;;;2.20;;
71353;SDS011;59393;51.652;4.864;2022-09-28T07:53:29;6.80;;;2.00;;
71353;SDS011;59393;51.652;4.864;2022-09-28T07:55:56;6.88;;;1.90;;
71353;SDS011;59393;51.652;4.864;2022-09-28T07:58:29;7.07;;;1.70;;
71353;SDS011;59393;51.652;4.864;2022-09-28T08:00:57;5.63;;;1.98;;
71353;SDS011;59393;51.652;4.864;2022-09-28T08:03:25;4.80;;;1.70;;
71353;SDS011;59393;51.652;4.864;2022-09-28T08:05:56;5.77;;;1.60;;
71353;SDS011;59393;51.652;4.864;2022-09-28T08:08:22;5.95;;;1.75;;
71353;SDS011;59393;51.652;4.864;2022-09-28T08:10:48;6.45;;;2.15;;
71353;SDS011;59393;51.652;4.864;2022-09-28T08:13:17;5.80;;;1.95;;
71353;SDS011;59393;51.652;4.864;2022-09-28T08:15:43;6.93;;;2.65;;
71353;SDS011;59393;51.652;4.864;2022-09-28T08:18:11;4.93;;;1.77;;
71353;SDS011;59393;51.652;4.864;2022-09-28T08:20:37;7.15;;;2.22;;
71353;SDS011;59393;51.652;4.864;2022-09-28T08:23:21;8.70;;;1.80;;
71353;SDS011;59393;51.652;4.864;2022-09-28T08:25:48;5.43;;;1.48;;
71353;SDS011;59393;51.652;4.864;2022-09-28T08:28:14;6.00;;;1.42;;
71353;SDS011;59393;51.652;4.864;2022-09-28T08:30:41;5.27;;;1.17;;
71353;SDS011;59393;51.652;4.864;2022-09-28T08:33:09;3.03;;;1.00;;
71353;SDS011;59393;51.652;4.864;2022-09-28T08:35:35;4.75;;;1.17;;
71353;SDS011;59393;51.652;4.864;2022-09-28T08:38:01;5.90;;;1.10;;
71353;SDS011;59393;51.652;4.864;2022-09-28T08:40:27;3.60;;;1.20;;
71353;SDS011;59393;51.652;4.864;2022-09-28T08:42:55;3.50;;;0.90;;
71353;SDS011;59393;51.652;4.864;2022-09-28T08:45:29;3.13;;;0.90;;
71353;SDS011;59393;51.652;4.864;2022-09-28T08:48:20;2.67;;;0.77;;
71353;SDS011;59393;51.652;4.864;2022-09-28T08:59:03;2.47;;;0.63;;
71353;SDS011;59393;51.652;4.864;2022-09-28T09:01:45;3.50;;;0.85;;
71353;SDS011;59393;51.652;4.864;2022-09-28T09:04:12;4.50;;;0.75;;
71353;SDS011;59393;51.652;4.864;2022-09-28T09:09:09;5.87;;;0.87;;
71353;SDS011;59393;51.652;4.864;2022-09-28T09:14:50;4.47;;;1.00;;
71353;SDS011;59393;51.652;4.864;2022-09-28T09:19:55;2.22;;;0.57;;
71353;SDS011;59393;51.652;4.864;2022-09-28T09:25:02;3.47;;;1.25;;
71353;SDS011;59393;51.652;4.864;2022-09-28T09:27:44;2.72;;;0.73;;
71353;SDS011;59393;51.652;4.864;2022-09-28T09:30:16;2.42;;;0.80;;
71353;SDS011;59393;51.652;4.864;2022-09-28T09:32:52;4.65;;;0.75;;
71353;SDS011;59393;51.652;4.864;2022-09-28T09:48:22;2.03;;;0.83;;
71353;SDS011;59393;51.652;4.864;2022-09-28T09:50:55;10.20;;;1.27;;
71353;SDS011;59393;51.652;4.864;2022-09-28T09:53:27;2.85;;;0.77;;
71353;SDS011;59393;51.652;4.864;2022-09-28T09:55:58;5.80;;;0.60;;
71353;SDS011;59393;51.652;4.864;2022-09-28T09:58:30;3.78;;;0.98;;
71353;SDS011;59393;51.652;4.864;2022-09-28T10:01:03;4.70;;;0.60;;
71353;SDS011;59393;51.652;4.864;2022-09-28T10:03:31;4.85;;;0.70;;
71353;SDS011;59393;51.652;4.864;2022-09-28T10:05:59;2.08;;;0.75;;
71353;SDS011;59393;51.652;4.864;2022-09-28T10:08:26;7.20;;;1.30;;
71353;SDS011;59393;51.652;4.864;2022-09-28T10:10:55;6.70;;;0.93;;
71353;SDS011;59393;51.652;4.864;2022-09-28T10:13:27;6.17;;;1.23;;
71353;SDS011;59393;51.652;4.864;2022-09-28T10:15:53;8.15;;;1.48;;
71353;SDS011;59393;51.652;4.864;2022-09-28T10:18:20;8.77;;;1.40;;
71353;SDS011;59393;51.652;4.864;2022-09-28T10:20:47;4.50;;;1.45;;
71353;SDS011;59393;51.652;4.864;2022-09-28T10:23:20;6.05;;;1.60;;
71353;SDS011;59393;51.652;4.864;2022-09-28T10:25:48;3.53;;;1.30;;
71353;SDS011;59393;51.652;4.864;2022-09-28T10:28:17;5.75;;;1.52;;
71353;SDS011;59393;51.652;4.864;2022-09-28T10:30:43;5.00;;;1.30;;
71353;SDS011;59393;51.652;4.864;2022-09-28T10:35:54;4.03;;;1.08;;
71353;SDS011;59393;51.652;4.864;2022-09-28T10:38:20;5.33;;;1.43;;
71353;SDS011;59393;51.652;4.864;2022-09-28T10:40:49;3.15;;;0.70;;
71353;SDS011;59393;51.652;4.864;2022-09-28T10:45:44;3.70;;;1.05;;
71353;SDS011;59393;51.652;4.864;2022-09-28T10:50:57;7.03;;;1.15;;
71353;SDS011;59393;51.652;4.864;2022-09-28T10:53:24;4.97;;;0.95;;
71353;SDS011;59393;51.652;4.864;2022-09-28T10:55:58;4.88;;;0.80;;
71353;SDS011;59393;51.652;4.864;2022-09-28T10:58:25;1.50;;;0.70;;
71353;SDS011;59393;51.652;4.864;2022-09-28T11:00:51;5.87;;;1.23;;
71353;SDS011;59393;51.652;4.864;2022-09-28T11:03:24;4.07;;;1.17;;
71353;SDS011;59393;51.652;4.864;2022-09-28T11:08:21;4.65;;;0.95;;
71353;SDS011;59393;51.652;4.864;2022-09-28T11:10:59;2.67;;;0.80;;
71353;SDS011;59393;51.652;4.864;2022-09-28T11:13:26;8.53;;;1.00;;
71353;SDS011;59393;51.652;4.864;2022-09-28T11:15:57;2.97;;;0.70;;
71353;SDS011;59393;51.652;4.864;2022-09-28T11:18:25;4.13;;;0.75;;
71353;SDS011;59393;51.652;4.864;2022-09-28T11:21:05;1.88;;;0.70;;
71353;SDS011;59393;51.652;4.864;2022-09-28T11:23:31;4.72;;;0.90;;
71353;SDS011;59393;51.652;4.864;2022-09-28T11:25:59;4.17;;;0.73;;
71353;SDS011;59393;51.652;4.864;2022-09-28T11:28:28;3.50;;;0.73;;
71353;SDS011;59393;51.652;4.864;2022-09-28T11:30:56;4.03;;;0.90;;
71353;SDS011;59393;51.652;4.864;2022-09-28T11:33:40;5.93;;;0.60;;
71353;SDS011;59393;51.652;4.864;2022-09-28T11:49:12;4.68;;;0.85;;
71353;SDS011;59393;51.652;4.864;2022-09-28T11:51:41;1.30;;;0.47;;
71353;SDS011;59393;51.652;4.864;2022-09-28T11:54:10;2.42;;;0.60;;
71353;SDS011;59393;51.652;4.864;2022-09-28T11:56:47;1.17;;;0.60;;
71353;SDS011;59393;51.652;4.864;2022-09-28T11:59:29;2.08;;;0.63;;
71353;SDS011;59393;51.652;4.864;2022-09-28T12:01:57;2.05;;;0.60;;
71353;SDS011;59393;51.652;4.864;2022-09-28T12:06:57;2.08;;;0.50;;
71353;SDS011;59393;51.652;4.864;2022-09-28T12:11:57;1.20;;;0.50;;
71353;SDS011;59393;51.652;4.864;2022-09-28T12:14:26;2.33;;;0.70;;
71353;SDS011;59393;51.652;4.864;2022-09-28T12:19:43;2.13;;;0.50;;
71353;SDS011;59393;51.652;4.864;2022-09-28T12:22:17;2.10;;;0.52;;
71353;SDS011;59393;51.652;4.864;2022-09-28T12:24:46;1.35;;;0.50;;
71353;SDS011;59393;51.652;4.864;2022-09-28T12:27:16;2.72;;;0.80;;
71353;SDS011;59393;51.652;4.864;2022-09-28T12:29:47;3.97;;;0.60;;
71353;SDS011;59393;51.652;4.864;2022-09-28T12:32:29;1.08;;;0.60;;
71353;SDS011;59393;51.652;4.864;2022-09-28T12:34:59;0.77;;;0.40;;
71353;SDS011;59393;51.652;4.864;2022-09-28T12:37:28;1.17;;;0.45;;
71353;SDS011;59393;51.652;4.864;2022-09-28T12:42:50;4.17;;;1.00;;
71353;SDS011;59393;51.652;4.864;2022-09-28T12:48:04;3.58;;;0.82;;
71353;SDS011;59393;51.652;4.864;2022-09-28T13:07:14;1.75;;;0.68;;
71353;SDS011;59393;51.652;4.864;2022-09-28T13:24:00;3.73;;;0.60;;
71353;SDS011;59393;51.652;4.864;2022-09-28T13:26:39;5.10;;;0.88;;
71353;SDS011;59393;51.652;4.864;2022-09-28T13:29:09;2.80;;;0.65;;
71353;SDS011;59393;51.652;4.864;2022-09-28T13:31:38;2.10;;;0.57;;
71353;SDS011;59393;51.652;4.864;2022-09-28T13:34:09;2.55;;;0.40;;
71353;SDS011;59393;51.652;4.864;2022-09-28T13:36:42;0.60;;;0.40;;
71353;SDS011;59393;51.652;4.864;2022-09-28T14:42:13;0.77;;;0.45;;
71353;SDS011;59393;51.652;4.864;2022-09-28T14:50:54;1.27;;;0.50;;
71353;SDS011;59393;51.652;4.864;2022-09-28T14:53:40;1.33;;;0.50;;
71353;SDS011;59393;51.652;4.864;2022-09-28T14:56:06;0.85;;;0.47;;
71353;SDS011;59393;51.652;4.864;2022-09-28T14:58:53;1.23;;;0.50;;
71353;SDS011;59393;51.652;4.864;2022-09-28T15:01:24;2.13;;;0.68;;
71353;SDS011;59393;51.652;4.864;2022-09-28T15:04:07;1.47;;;0.50;;
71353;SDS011;59393;51.652;4.864;2022-09-28T15:16:53;3.20;;;0.60;;
71353;SDS011;59393;51.652;4.864;2022-09-28T15:25:21;1.95;;;0.50;;
71353;SDS011;59393;51.652;4.864;2022-09-28T15:28:12;1.90;;;0.50;;
71353;SDS011;59393;51.652;4.864;2022-09-28T15:30:44;0.65;;;0.30;;
71353;SDS011;59393;51.652;4.864;2022-09-28T15:33:33;1.40;;;0.30;;
71353;SDS011;59393;51.652;4.864;2022-09-28T15:36:19;1.20;;;0.40;;
71353;SDS011;59393;51.652;4.864;2022-09-28T15:38:57;2.42;;;0.50;;
71353;SDS011;59393;51.652;4.864;2022-09-28T15:41:30;1.20;;;0.52;;
71353;SDS011;59393;51.652;4.864;2022-09-28T15:47:03;1.47;;;0.50;;
71353;SDS011;59393;51.652;4.864;2022-09-28T15:49:58;1.00;;;0.50;;
71353;SDS011;59393;51.652;4.864;2022-09-28T15:52:43;0.90;;;0.40;;
71353;SDS011;59393;51.652;4.864;2022-09-28T15:58:21;1.45;;;0.30;;
71353;SDS011;59393;51.652;4.864;2022-09-28T16:03:43;1.13;;;0.40;;
71353;SDS011;59393;51.652;4.864;2022-09-28T16:06:10;1.85;;;0.50;;
71353;SDS011;59393;51.652;4.864;2022-09-28T16:08:45;1.10;;;0.50;;
71353;SDS011;59393;51.652;4.864;2022-09-28T16:11:19;2.45;;;0.57;;
71353;SDS011;59393;51.652;4.864;2022-09-28T16:16:31;1.55;;;0.50;;
71353;SDS011;59393;51.652;4.864;2022-09-28T16:21:51;2.45;;;0.70;;
71353;SDS011;59393;51.652;4.864;2022-09-28T16:24:23;2.47;;;0.82;;
71353;SDS011;59393;51.652;4.864;2022-09-28T16:29:34;2.25;;;0.68;;
71353;SDS011;59393;51.652;4.864;2022-09-28T16:37:35;2.75;;;0.65;;
71353;SDS011;59393;51.652;4.864;2022-09-28T16:40:02;1.73;;;0.60;;
71353;SDS011;59393;51.652;4.864;2022-09-28T16:42:28;1.40;;;0.50;;
71353;SDS011;59393;51.652;4.864;2022-09-28T16:44:58;1.48;;;0.60;;
71353;SDS011;59393;51.652;4.864;2022-09-28T16:47:26;1.25;;;0.57;;
71353;SDS011;59393;51.652;4.864;2022-09-28T16:49:56;1.58;;;0.60;;
71353;SDS011;59393;51.652;4.864;2022-09-28T16:52:22;1.97;;;0.60;;
71353;SDS011;59393;51.652;4.864;2022-09-28T16:55:09;2.95;;;0.90;;
71353;SDS011;59393;51.652;4.864;2022-09-28T16:57:42;1.73;;;0.60;;
71353;SDS011;59393;51.652;4.864;2022-09-28T17:00:09;2.67;;;0.85;;
71353;SDS011;59393;51.652;4.864;2022-09-28T17:02:39;3.30;;;1.00;;
71353;SDS011;59393;51.652;4.864;2022-09-28T17:05:05;3.23;;;1.07;;
71353;SDS011;59393;51.652;4.864;2022-09-28T17:07:31;2.83;;;0.98;;
71353;SDS011;59393;51.652;4.864;2022-09-28T17:09:58;3.38;;;1.00;;
71353;SDS011;59393;51.652;4.864;2022-09-28T17:12:24;5.50;;;1.05;;
71353;SDS011;59393;51.652;4.864;2022-09-28T17:14:53;3.15;;;1.10;;
71353;SDS011;59393;51.652;4.864;2022-09-28T17:17:19;2.63;;;1.03;;
71353;SDS011;59393;51.652;4.864;2022-09-28T17:19:46;3.78;;;1.20;;
71353;SDS011;59393;51.652;4.864;2022-09-28T17:22:12;3.50;;;1.10;;
71353;SDS011;59393;51.652;4.864;2022-09-28T17:24:40;4.03;;;1.08;;
71353;SDS011;59393;51.652;4.864;2022-09-28T17:27:06;3.30;;;1.10;;
71353;SDS011;59393;51.652;4.864;2022-09-28T17:29:37;3.73;;;1.57;;
71353;SDS011;59393;51.652;4.864;2022-09-28T17:32:04;3.10;;;1.00;;
71353;SDS011;59393;51.652;4.864;2022-09-28T17:34:32;9.20;;;3.28;;
71353;SDS011;59393;51.652;4.864;2022-09-28T17:36:58;7.50;;;2.95;;
71353;SDS011;59393;51.652;4.864;2022-09-28T17:39:24;8.20;;;3.17;;
71353;SDS011;59393;51.652;4.864;2022-09-28T17:41:50;6.43;;;2.00;;
71353;SDS011;59393;51.652;4.864;2022-09-28T17:44:19;4.65;;;1.33;;
71353;SDS011;59393;51.652;4.864;2022-09-28T17:46:46;4.72;;;1.30;;
71353;SDS011;59393;51.652;4.864;2022-09-28T17:49:19;4.13;;;1.45;;
71353;SDS011;59393;51.652;4.864;2022-09-28T17:51:58;5.00;;;1.35;;
71353;SDS011;59393;51.652;4.864;2022-09-28T17:54:36;2.63;;;0.90;;
71353;SDS011;59393;51.652;4.864;2022-09-28T17:57:03;4.25;;;1.38;;
71353;SDS011;59393;51.652;4.864;2022-09-28T17:59:32;3.30;;;1.30;;
71353;SDS011;59393;51.652;4.864;2022-09-28T18:01:58;6.07;;;1.20;;
71353;SDS011;59393;51.652;4.864;2022-09-28T18:04:25;3.63;;;1.17;;
71353;SDS011;59393;51.652;4.864;2022-09-28T18:06:54;3.20;;;1.10;;
71353;SDS011;59393;51.652;4.864;2022-09-28T18:09:27;5.30;;;1.80;;
71353;SDS011;59393;51.652;4.864;2022-09-28T18:11:59;7.93;;;1.60;;
71353;SDS011;59393;51.652;4.864;2022-09-28T18:14:25;6.25;;;1.50;;
71353;SDS011;59393;51.652;4.864;2022-09-28T18:16:52;4.90;;;1.80;;
71353;SDS011;59393;51.652;4.864;2022-09-28T18:19:18;9.80;;;1.93;;
71353;SDS011;59393;51.652;4.864;2022-09-28T18:21:44;6.22;;;1.80;;
71353;SDS011;59393;51.652;4.864;2022-09-28T18:24:10;5.30;;;1.80;;
71353;SDS011;59393;51.652;4.864;2022-09-28T18:26:36;5.65;;;1.65;;
71353;SDS011;59393;51.652;4.864;2022-09-28T18:29:02;4.60;;;1.75;;
71353;SDS011;59393;51.652;4.864;2022-09-28T18:31:28;6.03;;;1.80;;
71353;SDS011;59393;51.652;4.864;2022-09-28T18:33:58;5.88;;;1.80;;
71353;SDS011;59393;51.652;4.864;2022-09-28T18:36:30;7.43;;;2.15;;
71353;SDS011;59393;51.652;4.864;2022-09-28T18:38:59;6.68;;;2.33;;
71353;SDS011;59393;51.652;4.864;2022-09-28T18:41:27;6.57;;;2.45;;
71353;SDS011;59393;51.652;4.864;2022-09-28T18:43:56;6.97;;;2.57;;
71353;SDS011;59393;51.652;4.864;2022-09-28T18:46:30;8.85;;;3.58;;
71353;SDS011;59393;51.652;4.864;2022-09-28T18:49:01;9.77;;;3.85;;
71353;SDS011;59393;51.652;4.864;2022-09-28T18:51:29;9.50;;;4.00;;
71353;SDS011;59393;51.652;4.864;2022-09-28T18:54:00;7.80;;;3.65;;
71353;SDS011;59393;51.652;4.864;2022-09-28T18:56:33;7.83;;;3.47;;
71353;SDS011;59393;51.652;4.864;2022-09-28T18:59:01;9.25;;;3.47;;
71353;SDS011;59393;51.652;4.864;2022-09-28T19:01:32;8.55;;;3.92;;